sensor_id;sensor_type;location;lat;lon;timestamp;pressure;altitude;pressure_sealevel;temperature;humidity
11487;BME280;10510;47.942;9.442;2022-07-24T00:01:54;95004.66;;;17.82;100.00
11487;BME280;10510;47.942;9.442;2022-07-24T00:03:55;95009.94;;;17.82;100.00
11487;BME280;10510;47.942;9.442;2022-07-24T00:05:55;95003.25;;;17.79;100.00
11487;BME280;10510;47.942;9.442;2022-07-24T00:07:56;95002.88;;;17.76;100.00
11487;BME280;10510;47.942;9.442;2022-07-24T00:09:56;95011.03;;;17.74;100.00
11487;BME280;10510;47.942;9.442;2022-07-24T00:11:56;95007.59;;;17.74;100.00
11487;BME280;10510;47.942;9.442;2022-07-24T00:13:58;95008.22;;;17.69;100.00
11487;BME280;10510;47.942;9.442;2022-07-24T00:15:58;95010.50;;;17.65;100.00
11487;BME280;10510;47.942;9.442;2022-07-24T00:17:59;95009.91;;;17.63;100.00
11487;BME280;10510;47.942;9.442;2022-07-24T00:19:59;95011.38;;;17.59;100.00
11487;BME280;10510;47.942;9.442;2022-07-24T00:21:59;95007.91;;;17.59;100.00
11487;BME280;10510;47.942;9.442;2022-07-24T00:24:02;95010.78;;;17.57;100.00
11487;BME280;10510;47.942;9.442;2022-07-24T00:26:02;95012.63;;;17.57;100.00
11487;BME280;10510;47.942;9.442;2022-07-24T00:28:03;95005.69;;;17.56;100.00
11487;BME280;10510;47.942;9.442;2022-07-24T00:30:03;95014.44;;;17.56;100.00
11487;BME280;10510;47.942;9.442;2022-07-24T00:32:04;95015.47;;;17.55;100.00
11487;BME280;10510;47.942;9.442;2022-07-24T00:34:04;95021.78;;;17.54;100.00
11487;BME280;10510;47.942;9.442;2022-07-24T00:36:05;95022.81;;;17.53;100.00
11487;BME280;10510;47.942;9.442;2022-07-24T00:38:05;95014.28;;;17.51;100.00
11487;BME280;10510;47.942;9.442;2022-07-24T00:40:06;95023.25;;;17.50;100.00
11487;BME280;10510;47.942;9.442;2022-07-24T00:42:06;95021.44;;;17.44;100.00
11487;BME280;10510;47.942;9.442;2022-07-24T00:44:10;95013.59;;;17.37;100.00
11487;BME280;10510;47.942;9.442;2022-07-24T00:46:10;95020.34;;;17.33;100.00
11487;BME280;10510;47.942;9.442;2022-07-24T00:48:11;95022.38;;;17.31;100.00
11487;BME280;10510;47.942;9.442;2022-07-24T00:50:11;95016.72;;;17.28;100.00
11487;BME280;10510;47.942;9.442;2022-07-24T00:52:11;95018.75;;;17.25;100.00
11487;BME280;10510;47.942;9.442;2022-07-24T00:54:13;95014.50;;;17.24;100.00
11487;BME280;10510;47.942;9.442;2022-07-24T00:56:13;95020.41;;;17.27;100.00
11487;BME280;10510;47.942;9.442;2022-07-24T00:58:14;95019.13;;;17.29;100.00
11487;BME280;10510;47.942;9.442;2022-07-24T01:00:15;95022.16;;;17.33;100.00
11487;BME280;10510;47.942;9.442;2022-07-24T01:02:16;95012.97;;;17.35;100.00
11487;BME280;10510;47.942;9.442;2022-07-24T01:04:18;95017.84;;;17.38;100.00
11487;BME280;10510;47.942;9.442;2022-07-24T01:06:18;95014.38;;;17.38;100.00
11487;BME280;10510;47.942;9.442;2022-07-24T01:08:19;95015.22;;;17.38;100.00
11487;BME280;10510;47.942;9.442;2022-07-24T01:10:20;95006.88;;;17.41;100.00
11487;BME280;10510;47.942;9.442;2022-07-24T01:12:21;95001.56;;;17.41;100.00
11487;BME280;10510;47.942;9.442;2022-07-24T01:14:22;95002.94;;;17.44;100.00
11487;BME280;10510;47.942;9.442;2022-07-24T01:16:22;95007.66;;;17.42;100.00
11487;BME280;10510;47.942;9.442;2022-07-24T01:18:23;95008.91;;;17.39;100.00
11487;BME280;10510;47.942;9.442;2022-07-24T01:20:23;95012.34;;;17.40;100.00
11487;BME280;10510;47.942;9.442;2022-07-24T01:22:25;95013.38;;;17.39;100.00
11487;BME280;10510;47.942;9.442;2022-07-24T01:24:25;95011.75;;;17.38;100.00
11487;BME280;10510;47.942;9.442;2022-07-24T01:26:26;95003.81;;;17.38;100.00
11487;BME280;10510;47.942;9.442;2022-07-24T01:28:26;95002.81;;;17.39;100.00
11487;BME280;10510;47.942;9.442;2022-07-24T01:30:26;95001.63;;;17.35;100.00
11487;BME280;10510;47.942;9.442;2022-07-24T01:32:27;95006.53;;;17.31;100.00
11487;BME280;10510;47.942;9.442;2022-07-24T01:34:27;95009.81;;;17.27;100.00
11487;BME280;10510;47.942;9.442;2022-07-24T01:36:28;95009.44;;;17.23;100.00
11487;BME280;10510;47.942;9.442;2022-07-24T01:38:28;95006.66;;;17.18;100.00
11487;BME280;10510;47.942;9.442;2022-07-24T01:40:29;95007.06;;;17.15;100.00
11487;BME280;10510;47.942;9.442;2022-07-24T01:42:29;95001.19;;;17.13;100.00
11487;BME280;10510;47.942;9.442;2022-07-24T01:44:30;95002.19;;;17.12;100.00
11487;BME280;10510;47.942;9.442;2022-07-24T01:46:30;95004.03;;;17.11;100.00
11487;BME280;10510;47.942;9.442;2022-07-24T01:48:30;95009.16;;;17.06;100.00
11487;BME280;10510;47.942;9.442;2022-07-24T01:50:31;95011.25;;;16.97;100.00
11487;BME280;10510;47.942;9.442;2022-07-24T01:52:31;95005.56;;;16.94;100.00
11487;BME280;10510;47.942;9.442;2022-07-24T01:54:31;95004.19;;;16.91;100.00
11487;BME280;10510;47.942;9.442;2022-07-24T01:56:32;95009.69;;;16.90;100.00
11487;BME280;10510;47.942;9.442;2022-07-24T01:58:33;95002.38;;;16.92;100.00
11487;BME280;10510;47.942;9.442;2022-07-24T02:00:33;95000.97;;;16.89;100.00
11487;BME280;10510;47.942;9.442;2022-07-24T02:02:33;95005.63;;;16.87;100.00
11487;BME280;10510;47.942;9.442;2022-07-24T02:04:34;95002.38;;;16.85;100.00
11487;BME280;10510;47.942;9.442;2022-07-24T02:06:34;95006.84;;;16.85;100.00
11487;BME280;10510;47.942;9.442;2022-07-24T02:08:34;95005.25;;;16.84;100.00
11487;BME280;10510;47.942;9.442;2022-07-24T02:10:35;95006.28;;;16.83;100.00
11487;BME280;10510;47.942;9.442;2022-07-24T02:12:35;95002.81;;;16.82;100.00
11487;BME280;10510;47.942;9.442;2022-07-24T02:14:35;95006.47;;;16.81;100.00
11487;BME280;10510;47.942;9.442;2022-07-24T02:16:36;94997.16;;;16.78;100.00
11487;BME280;10510;47.942;9.442;2022-07-24T02:18:36;95003.47;;;16.77;100.00
11487;BME280;10510;47.942;9.442;2022-07-24T02:20:36;95006.09;;;16.77;100.00
11487;BME280;10510;47.942;9.442;2022-07-24T02:22:37;95001.44;;;16.79;100.00
11487;BME280;10510;47.942;9.442;2022-07-24T02:24:37;95004.06;;;16.79;100.00
11487;BME280;10510;47.942;9.442;2022-07-24T02:26:37;95007.50;;;16.80;100.00
11487;BME280;10510;47.942;9.442;2022-07-24T02:28:38;95003.25;;;16.72;100.00
11487;BME280;10510;47.942;9.442;2022-07-24T02:30:38;95000.28;;;16.62;100.00
11487;BME280;10510;47.942;9.442;2022-07-24T02:32:38;95000.16;;;16.50;100.00
11487;BME280;10510;47.942;9.442;2022-07-24T02:34:38;94999.16;;;16.45;100.00
11487;BME280;10510;47.942;9.442;2022-07-24T02:36:39;94999.16;;;16.45;100.00
11487;BME280;10510;47.942;9.442;2022-07-24T02:38:41;95002.00;;;16.43;100.00
11487;BME280;10510;47.942;9.442;2022-07-24T02:40:41;95000.56;;;16.41;100.00
11487;BME280;10510;47.942;9.442;2022-07-24T02:42:42;95004.25;;;16.40;100.00
11487;BME280;10510;47.942;9.442;2022-07-24T02:44:42;95004.25;;;16.40;100.00
11487;BME280;10510;47.942;9.442;2022-07-24T02:46:43;95009.53;;;16.40;100.00
11487;BME280;10510;47.942;9.442;2022-07-24T02:48:43;95008.91;;;16.38;100.00
11487;BME280;10510;47.942;9.442;2022-07-24T02:50:43;95011.78;;;16.36;100.00
11487;BME280;10510;47.942;9.442;2022-07-24T02:52:44;95014.03;;;16.32;100.00
11487;BME280;10510;47.942;9.442;2022-07-24T02:54:44;95006.72;;;16.28;100.00
11487;BME280;10510;47.942;9.442;2022-07-24T02:56:44;95010.41;;;16.27;100.00
11487;BME280;10510;47.942;9.442;2022-07-24T02:58:44;95007.97;;;16.25;100.00
11487;BME280;10510;47.942;9.442;2022-07-24T03:00:45;95017.69;;;16.25;100.00
11487;BME280;10510;47.942;9.442;2022-07-24T03:02:45;95017.91;;;16.23;100.00
11487;BME280;10510;47.942;9.442;2022-07-24T03:04:46;95010.41;;;16.20;100.00
11487;BME280;10510;47.942;9.442;2022-07-24T03:06:46;95014.06;;;16.19;100.00
11487;BME280;10510;47.942;9.442;2022-07-24T03:08:46;95013.25;;;16.19;100.00
11487;BME280;10510;47.942;9.442;2022-07-24T03:10:47;95008.19;;;16.17;100.00
11487;BME280;10510;47.942;9.442;2022-07-24T03:12:47;95015.91;;;16.19;100.00
11487;BME280;10510;47.942;9.442;2022-07-24T03:14:48;95017.72;;;16.18;100.00
11487;BME280;10510;47.942;9.442;2022-07-24T03:16:49;95015.91;;;16.19;100.00
11487;BME280;10510;47.942;9.442;2022-07-24T03:18:49;95007.19;;;16.18;100.00
11487;BME280;10510;47.942;9.442;2022-07-24T03:20:49;95008.41;;;16.16;100.00
11487;BME280;10510;47.942;9.442;2022-07-24T03:22:50;95005.97;;;16.14;100.00
11487;BME280;10510;47.942;9.442;2022-07-24T03:24:50;94999.09;;;16.13;100.00
11487;BME280;10510;47.942;9.442;2022-07-24T03:26:50;95002.53;;;16.13;100.00
11487;BME280;10510;47.942;9.442;2022-07-24T03:28:50;95007.78;;;16.13;100.00
11487;BME280;10510;47.942;9.442;2022-07-24T03:30:51;95011.25;;;16.14;100.00
11487;BME280;10510;47.942;9.442;2022-07-24T03:32:51;95006.78;;;16.15;100.00
11487;BME280;10510;47.942;9.442;2022-07-24T03:34:51;95006.78;;;16.15;100.00
11487;BME280;10510;47.942;9.442;2022-07-24T03:36:52;95004.97;;;16.15;100.00
11487;BME280;10510;47.942;9.442;2022-07-24T03:38:52;95001.31;;;16.16;100.00
11487;BME280;10510;47.942;9.442;2022-07-24T03:40:52;95004.13;;;16.15;100.00
11487;BME280;10510;47.942;9.442;2022-07-24T03:42:53;95014.28;;;16.11;100.00
11487;BME280;10510;47.942;9.442;2022-07-24T03:44:53;95006.00;;;16.07;100.00
11487;BME280;10510;47.942;9.442;2022-07-24T03:46:53;95009.84;;;16.05;100.00
11487;BME280;10510;47.942;9.442;2022-07-24T03:48:54;95006.03;;;16.01;100.00
11487;BME280;10510;47.942;9.442;2022-07-24T03:50:55;95011.72;;;15.98;100.00
11487;BME280;10510;47.942;9.442;2022-07-24T03:52:55;95012.31;;;15.93;100.00
11487;BME280;10510;47.942;9.442;2022-07-24T03:54:55;95009.31;;;15.89;100.00
11487;BME280;10510;47.942;9.442;2022-07-24T03:56:56;95016.59;;;15.87;100.00
11487;BME280;10510;47.942;9.442;2022-07-24T03:58:56;95011.31;;;15.87;100.00
11487;BME280;10510;47.942;9.442;2022-07-24T04:00:56;95018.22;;;15.88;100.00
11487;BME280;10510;47.942;9.442;2022-07-24T04:02:57;95021.44;;;15.90;100.00
11487;BME280;10510;47.942;9.442;2022-07-24T04:04:57;95022.44;;;15.96;100.00
11487;BME280;10510;47.942;9.442;2022-07-24T04:06:57;95032.75;;;16.11;100.00
11487;BME280;10510;47.942;9.442;2022-07-24T04:08:59;95027.63;;;16.23;100.00
11487;BME280;10510;47.942;9.442;2022-07-24T04:10:59;95025.19;;;16.28;100.00
11487;BME280;10510;47.942;9.442;2022-07-24T04:12:59;95031.88;;;16.30;100.00
11487;BME280;10510;47.942;9.442;2022-07-24T04:15:00;95034.91;;;16.34;100.00
11487;BME280;10510;47.942;9.442;2022-07-24T04:17:00;95040.75;;;16.43;100.00
11487;BME280;10510;47.942;9.442;2022-07-24T04:19:00;95041.31;;;16.51;100.00
11487;BME280;10510;47.942;9.442;2022-07-24T04:21:01;95038.66;;;16.58;100.00
11487;BME280;10510;47.942;9.442;2022-07-24T04:23:01;95046.94;;;16.68;100.00
11487;BME280;10510;47.942;9.442;2022-07-24T04:25:02;95041.63;;;16.75;100.00
11487;BME280;10510;47.942;9.442;2022-07-24T04:27:02;95042.81;;;16.79;100.00
11487;BME280;10510;47.942;9.442;2022-07-24T04:29:03;95043.81;;;16.85;100.00
11487;BME280;10510;47.942;9.442;2022-07-24T04:31:03;95037.31;;;16.87;100.00
11487;BME280;10510;47.942;9.442;2022-07-24T04:33:03;95047.47;;;16.84;100.00
11487;BME280;10510;47.942;9.442;2022-07-24T04:35:05;95038.16;;;16.81;100.00
11487;BME280;10510;47.942;9.442;2022-07-24T04:37:05;95036.50;;;16.87;100.00
11487;BME280;10510;47.942;9.442;2022-07-24T04:39:05;95042.53;;;16.94;100.00
11487;BME280;10510;47.942;9.442;2022-07-24T04:41:06;95038.03;;;17.01;100.00
11487;BME280;10510;47.942;9.442;2022-07-24T04:43:06;95027.84;;;17.05;100.00
11487;BME280;10510;47.942;9.442;2022-07-24T04:45:07;95036.00;;;17.03;100.00
11487;BME280;10510;47.942;9.442;2022-07-24T04:47:11;95036.00;;;17.03;100.00
11487;BME280;10510;47.942;9.442;2022-07-24T04:49:11;95025.81;;;17.07;100.00
11487;BME280;10510;47.942;9.442;2022-07-24T04:51:12;95033.47;;;17.15;100.00
11487;BME280;10510;47.942;9.442;2022-07-24T04:53:13;95033.88;;;17.12;100.00
11487;BME280;10510;47.942;9.442;2022-07-24T04:55:13;95031.66;;;17.09;100.00
11487;BME280;10510;47.942;9.442;2022-07-24T04:57:14;95033.94;;;17.05;100.00
11487;BME280;10510;47.942;9.442;2022-07-24T04:59:14;95035.56;;;17.06;100.00
11487;BME280;10510;47.942;9.442;2022-07-24T05:01:14;95043.06;;;17.09;100.00
11487;BME280;10510;47.942;9.442;2022-07-24T05:03:15;95037.94;;;17.14;100.00
11487;BME280;10510;47.942;9.442;2022-07-24T05:05:15;95050.13;;;17.15;100.00
11487;BME280;10510;47.942;9.442;2022-07-24T05:07:15;95044.41;;;17.18;100.00
11487;BME280;10510;47.942;9.442;2022-07-24T05:09:16;95047.00;;;17.25;100.00
11487;BME280;10510;47.942;9.442;2022-07-24T05:11:16;95052.22;;;17.32;100.00
11487;BME280;10510;47.942;9.442;2022-07-24T05:13:16;95054.44;;;17.35;100.00
11487;BME280;10510;47.942;9.442;2022-07-24T05:15:17;95049.75;;;17.37;100.00
11487;BME280;10510;47.942;9.442;2022-07-24T05:17:17;95046.69;;;17.40;100.00
11487;BME280;10510;47.942;9.442;2022-07-24T05:19:18;95051.78;;;17.41;100.00
11487;BME280;10510;47.942;9.442;2022-07-24T05:21:18;95049.31;;;17.40;100.00
11487;BME280;10510;47.942;9.442;2022-07-24T05:23:18;95050.72;;;17.42;100.00
11487;BME280;10510;47.942;9.442;2022-07-24T05:25:18;95056.38;;;17.46;100.00
11487;BME280;10510;47.942;9.442;2022-07-24T05:27:19;95048.63;;;17.51;100.00
11487;BME280;10510;47.942;9.442;2022-07-24T05:29:19;95044.09;;;17.58;100.00
11487;BME280;10510;47.942;9.442;2022-07-24T05:31:20;95047.69;;;17.64;100.00
11487;BME280;10510;47.942;9.442;2022-07-24T05:33:20;95040.38;;;17.66;100.00
11487;BME280;10510;47.942;9.442;2022-07-24T05:35:20;95037.91;;;17.71;100.00
11487;BME280;10510;47.942;9.442;2022-07-24T05:37:21;95041.31;;;17.78;100.00
11487;BME280;10510;47.942;9.442;2022-07-24T05:39:21;95043.44;;;17.88;100.00
11487;BME280;10510;47.942;9.442;2022-07-24T05:41:21;95045.00;;;17.96;100.00
11487;BME280;10510;47.942;9.442;2022-07-24T05:43:22;95043.31;;;18.01;100.00
11487;BME280;10510;47.942;9.442;2022-07-24T05:45:22;95053.38;;;18.11;100.00
11487;BME280;10510;47.942;9.442;2022-07-24T05:47:22;95048.00;;;18.17;100.00
11487;BME280;10510;47.942;9.442;2022-07-24T05:49:22;95046.47;;;18.28;100.00
11487;BME280;10510;47.942;9.442;2022-07-24T05:51:23;95037.00;;;18.39;100.00
11487;BME280;10510;47.942;9.442;2022-07-24T05:53:23;95045.19;;;18.49;100.00
11487;BME280;10510;47.942;9.442;2022-07-24T05:55:23;95044.91;;;18.57;100.00
11487;BME280;10510;47.942;9.442;2022-07-24T05:57:24;95049.22;;;18.70;100.00
11487;BME280;10510;47.942;9.442;2022-07-24T05:59:24;95045.75;;;18.88;100.00
11487;BME280;10510;47.942;9.442;2022-07-24T06:01:24;95047.22;;;19.14;100.00
11487;BME280;10510;47.942;9.442;2022-07-24T06:03:24;95052.03;;;19.47;100.00
11487;BME280;10510;47.942;9.442;2022-07-24T06:05:25;95053.00;;;19.88;100.00
11487;BME280;10510;47.942;9.442;2022-07-24T06:07:25;95052.38;;;20.22;100.00
11487;BME280;10510;47.942;9.442;2022-07-24T06:09:25;95048.97;;;20.50;100.00
11487;BME280;10510;47.942;9.442;2022-07-24T06:11:26;95052.84;;;20.82;100.00
11487;BME280;10510;47.942;9.442;2022-07-24T06:13:26;95051.09;;;21.05;100.00
11487;BME280;10510;47.942;9.442;2022-07-24T06:15:26;95049.06;;;21.24;100.00
11487;BME280;10510;47.942;9.442;2022-07-24T06:17:27;95048.22;;;21.52;100.00
11487;BME280;10510;47.942;9.442;2022-07-24T06:19:27;95049.47;;;22.00;100.00
11487;BME280;10510;47.942;9.442;2022-07-24T06:21:28;95043.69;;;22.42;100.00
11487;BME280;10510;47.942;9.442;2022-07-24T06:23:28;95039.94;;;22.87;100.00
11487;BME280;10510;47.942;9.442;2022-07-24T06:25:28;95043.03;;;23.28;100.00
11487;BME280;10510;47.942;9.442;2022-07-24T06:27:28;95040.59;;;23.53;100.00
11487;BME280;10510;47.942;9.442;2022-07-24T06:29:29;95038.91;;;23.74;100.00
11487;BME280;10510;47.942;9.442;2022-07-24T06:31:29;95046.00;;;23.96;100.00
11487;BME280;10510;47.942;9.442;2022-07-24T06:33:30;95041.97;;;24.36;100.00
11487;BME280;10510;47.942;9.442;2022-07-24T06:35:30;95038.44;;;24.93;100.00
11487;BME280;10510;47.942;9.442;2022-07-24T06:37:33;95044.16;;;25.27;100.00
11487;BME280;10510;47.942;9.442;2022-07-24T06:39:34;95036.94;;;25.38;100.00
11487;BME280;10510;47.942;9.442;2022-07-24T06:41:35;95042.59;;;25.62;100.00
11487;BME280;10510;47.942;9.442;2022-07-24T06:43:35;95034.28;;;25.84;100.00
11487;BME280;10510;47.942;9.442;2022-07-24T06:45:35;95039.31;;;26.16;100.00
11487;BME280;10510;47.942;9.442;2022-07-24T06:47:36;95037.38;;;26.42;100.00
11487;BME280;10510;47.942;9.442;2022-07-24T06:49:36;95029.59;;;26.56;100.00
11487;BME280;10510;47.942;9.442;2022-07-24T06:51:36;95031.34;;;26.86;100.00
11487;BME280;10510;47.942;9.442;2022-07-24T06:53:37;95029.91;;;27.04;100.00
11487;BME280;10510;47.942;9.442;2022-07-24T06:55:40;95028.50;;;27.17;100.00
11487;BME280;10510;47.942;9.442;2022-07-24T06:57:41;95029.28;;;27.57;100.00
11487;BME280;10510;47.942;9.442;2022-07-24T06:59:41;95030.34;;;27.95;100.00
11487;BME280;10510;47.942;9.442;2022-07-24T07:01:41;95035.59;;;28.29;100.00
11487;BME280;10510;47.942;9.442;2022-07-24T07:03:41;95029.34;;;28.63;100.00
11487;BME280;10510;47.942;9.442;2022-07-24T07:05:43;95026.34;;;28.89;100.00
11487;BME280;10510;47.942;9.442;2022-07-24T07:07:43;95020.63;;;29.14;100.00
11487;BME280;10510;47.942;9.442;2022-07-24T07:09:44;95019.88;;;29.47;100.00
11487;BME280;10510;47.942;9.442;2022-07-24T07:11:44;95017.34;;;29.74;100.00
11487;BME280;10510;47.942;9.442;2022-07-24T07:13:44;95020.34;;;29.86;100.00
11487;BME280;10510;47.942;9.442;2022-07-24T07:15:44;95019.38;;;29.96;100.00
11487;BME280;10510;47.942;9.442;2022-07-24T07:17:45;95017.56;;;29.92;100.00
11487;BME280;10510;47.942;9.442;2022-07-24T07:19:45;95024.03;;;29.91;100.00
11487;BME280;10510;47.942;9.442;2022-07-24T07:21:45;95017.09;;;30.17;100.00
11487;BME280;10510;47.942;9.442;2022-07-24T07:23:46;95016.34;;;30.30;100.00
11487;BME280;10510;47.942;9.442;2022-07-24T07:25:46;95015.13;;;30.64;100.00
11487;BME280;10510;47.942;9.442;2022-07-24T07:27:46;95007.16;;;30.87;100.00
11487;BME280;10510;47.942;9.442;2022-07-24T07:29:47;95007.75;;;30.97;100.00
11487;BME280;10510;47.942;9.442;2022-07-24T07:31:47;95009.16;;;31.17;100.00
11487;BME280;10510;47.942;9.442;2022-07-24T07:33:47;94998.88;;;31.19;100.00
11487;BME280;10510;47.942;9.442;2022-07-24T07:35:48;95007.94;;;31.23;100.00
11487;BME280;10510;47.942;9.442;2022-07-24T07:37:49;95002.91;;;31.44;100.00
11487;BME280;10510;47.942;9.442;2022-07-24T07:39:50;95006.88;;;31.70;100.00
11487;BME280;10510;47.942;9.442;2022-07-24T07:41:50;94998.34;;;31.99;100.00
11487;BME280;10510;47.942;9.442;2022-07-24T07:43:51;95003.59;;;31.95;100.00
11487;BME280;10510;47.942;9.442;2022-07-24T07:45:51;95002.22;;;31.84;100.00
11487;BME280;10510;47.942;9.442;2022-07-24T07:47:52;95001.41;;;32.06;100.00
11487;BME280;10510;47.942;9.442;2022-07-24T07:49:52;94994.66;;;32.26;100.00
11487;BME280;10510;47.942;9.442;2022-07-24T07:51:52;94998.19;;;32.35;100.00
11487;BME280;10510;47.942;9.442;2022-07-24T07:53:53;94994.53;;;32.31;100.00
11487;BME280;10510;47.942;9.442;2022-07-24T07:55:53;94989.25;;;32.66;100.00
11487;BME280;10510;47.942;9.442;2022-07-24T07:57:53;94992.53;;;33.11;100.00
11487;BME280;10510;47.942;9.442;2022-07-24T07:59:54;94993.00;;;33.13;100.00
11487;BME280;10510;47.942;9.442;2022-07-24T08:01:54;94992.97;;;32.96;100.00
11487;BME280;10510;47.942;9.442;2022-07-24T08:03:54;94997.09;;;32.93;100.00
11487;BME280;10510;47.942;9.442;2022-07-24T08:05:55;94992.16;;;32.95;100.00
11487;BME280;10510;47.942;9.442;2022-07-24T08:07:55;94997.47;;;33.27;100.00
11487;BME280;10510;47.942;9.442;2022-07-24T08:09:55;94983.47;;;33.42;100.00
11487;BME280;10510;47.942;9.442;2022-07-24T08:11:56;94984.91;;;33.31;100.00
11487;BME280;10510;47.942;9.442;2022-07-24T08:13:56;94990.44;;;33.43;100.00
11487;BME280;10510;47.942;9.442;2022-07-24T08:15:56;94989.03;;;33.54;100.00
11487;BME280;10510;47.942;9.442;2022-07-24T08:17:58;94986.63;;;33.70;100.00
11487;BME280;10510;47.942;9.442;2022-07-24T08:19:58;94987.69;;;34.04;100.00
11487;BME280;10510;47.942;9.442;2022-07-24T08:21:58;94989.28;;;34.05;100.00
11487;BME280;10510;47.942;9.442;2022-07-24T08:23:59;94990.75;;;33.76;100.00
11487;BME280;10510;47.942;9.442;2022-07-24T08:25:59;94984.69;;;33.79;100.00
11487;BME280;10510;47.942;9.442;2022-07-24T08:27:59;94981.94;;;33.97;100.00
11487;BME280;10510;47.942;9.442;2022-07-24T08:29:59;94986.69;;;34.17;100.00
11487;BME280;10510;47.942;9.442;2022-07-24T08:32:00;94982.69;;;34.53;100.00
11487;BME280;10510;47.942;9.442;2022-07-24T08:34:00;94980.16;;;34.86;100.00
11487;BME280;10510;47.942;9.442;2022-07-24T08:36:00;94980.09;;;34.95;100.00
11487;BME280;10510;47.942;9.442;2022-07-24T08:38:02;94979.00;;;34.87;100.00
11487;BME280;10510;47.942;9.442;2022-07-24T08:40:03;94974.50;;;34.91;100.00
11487;BME280;10510;47.942;9.442;2022-07-24T08:42:07;94981.44;;;35.31;100.00
11487;BME280;10510;47.942;9.442;2022-07-24T08:44:08;94978.84;;;35.55;100.00
11487;BME280;10510;47.942;9.442;2022-07-24T08:46:09;94982.34;;;35.35;100.00
11487;BME280;10510;47.942;9.442;2022-07-24T08:48:12;94982.63;;;35.21;100.00
11487;BME280;10510;47.942;9.442;2022-07-24T08:50:12;94985.13;;;35.26;100.00
11487;BME280;10510;47.942;9.442;2022-07-24T08:52:13;94982.06;;;35.48;100.00
11487;BME280;10510;47.942;9.442;2022-07-24T08:54:15;94985.03;;;35.77;100.00
11487;BME280;10510;47.942;9.442;2022-07-24T08:56:16;94985.34;;;36.08;100.00
11487;BME280;10510;47.942;9.442;2022-07-24T08:58:17;94982.44;;;36.13;100.00
11487;BME280;10510;47.942;9.442;2022-07-24T09:00:17;94987.41;;;35.78;100.00
11487;BME280;10510;47.942;9.442;2022-07-24T09:02:18;94978.72;;;35.97;100.00
11487;BME280;10510;47.942;9.442;2022-07-24T09:04:31;94986.44;;;35.95;100.00
11487;BME280;10510;47.942;9.442;2022-07-24T09:06:32;94977.19;;;36.08;100.00
11487;BME280;10510;47.942;9.442;2022-07-24T09:08:32;94982.31;;;36.34;100.00
11487;BME280;10510;47.942;9.442;2022-07-24T09:10:32;94981.75;;;36.41;100.00
11487;BME280;10510;47.942;9.442;2022-07-24T09:12:36;94978.81;;;36.22;100.00
11487;BME280;10510;47.942;9.442;2022-07-24T09:14:41;94986.91;;;36.55;100.00
11487;BME280;10510;47.942;9.442;2022-07-24T09:16:41;94987.91;;;36.87;100.00
11487;BME280;10510;47.942;9.442;2022-07-24T09:18:41;94980.47;;;37.12;100.00
11487;BME280;10510;47.942;9.442;2022-07-24T09:20:41;94978.78;;;37.20;100.00
11487;BME280;10510;47.942;9.442;2022-07-24T09:22:42;94982.78;;;36.98;100.00
11487;BME280;10510;47.942;9.442;2022-07-24T09:24:43;94980.75;;;36.70;100.00
11487;BME280;10510;47.942;9.442;2022-07-24T09:26:44;94975.16;;;36.91;100.00
11487;BME280;10510;47.942;9.442;2022-07-24T09:28:53;94977.19;;;37.19;100.00
11487;BME280;10510;47.942;9.442;2022-07-24T09:31:00;94981.53;;;37.36;100.00
11487;BME280;10510;47.942;9.442;2022-07-24T09:33:24;94972.66;;;37.11;100.00
11487;BME280;10510;47.942;9.442;2022-07-24T09:35:33;94976.59;;;37.25;100.00
11487;BME280;10510;47.942;9.442;2022-07-24T09:37:34;94969.50;;;37.09;100.00
11487;BME280;10510;47.942;9.442;2022-07-24T09:39:36;94965.53;;;36.94;100.00
11487;BME280;10510;47.942;9.442;2022-07-24T09:41:50;94966.69;;;36.80;100.00
11487;BME280;10510;47.942;9.442;2022-07-24T09:44:00;94960.19;;;36.97;100.00
11487;BME280;10510;47.942;9.442;2022-07-24T09:46:10;94960.56;;;36.83;100.00
11487;BME280;10510;47.942;9.442;2022-07-24T09:48:11;94962.50;;;36.71;100.00
11487;BME280;10510;47.942;9.442;2022-07-24T09:50:13;94955.88;;;36.96;100.00
11487;BME280;10510;47.942;9.442;2022-07-24T09:52:16;94952.22;;;37.17;100.00
11487;BME280;10510;47.942;9.442;2022-07-24T09:54:29;94952.63;;;36.78;100.00
11487;BME280;10510;47.942;9.442;2022-07-24T09:56:30;94957.38;;;36.81;100.00
11487;BME280;10510;47.942;9.442;2022-07-24T09:58:32;94951.13;;;37.05;100.00
11487;BME280;10510;47.942;9.442;2022-07-24T10:00:33;94954.13;;;37.28;100.00
11487;BME280;10510;47.942;9.442;2022-07-24T10:02:34;94948.56;;;37.25;100.00
11487;BME280;10510;47.942;9.442;2022-07-24T10:04:37;94947.94;;;37.16;100.00
11487;BME280;10510;47.942;9.442;2022-07-24T10:06:40;94953.94;;;36.97;100.00
11487;BME280;10510;47.942;9.442;2022-07-24T10:08:42;94943.56;;;36.87;100.00
11487;BME280;10510;47.942;9.442;2022-07-24T10:10:43;94950.41;;;36.68;100.00
11487;BME280;10510;47.942;9.442;2022-07-24T10:12:45;94950.13;;;36.12;100.00
11487;BME280;10510;47.942;9.442;2022-07-24T10:14:48;94947.03;;;35.89;100.00
11487;BME280;10510;47.942;9.442;2022-07-24T10:17:03;94943.72;;;35.83;100.00
11487;BME280;10510;47.942;9.442;2022-07-24T10:19:04;94949.75;;;35.35;100.00
11487;BME280;10510;47.942;9.442;2022-07-24T10:21:08;94942.53;;;34.97;100.00
11487;BME280;10510;47.942;9.442;2022-07-24T10:23:25;94943.28;;;34.55;100.00
11487;BME280;10510;47.942;9.442;2022-07-24T10:25:30;94946.03;;;34.47;100.00
11487;BME280;10510;47.942;9.442;2022-07-24T10:27:38;94942.00;;;34.53;100.00
11487;BME280;10510;47.942;9.442;2022-07-24T10:29:40;94933.91;;;34.44;100.00
11487;BME280;10510;47.942;9.442;2022-07-24T10:31:52;94944.31;;;34.42;100.00
11487;BME280;10510;47.942;9.442;2022-07-24T10:33:55;94932.38;;;34.34;100.00